createdAt,value
2023-06-07T00:10:13.006Z,14.6
2023-06-07T00:23:12.973Z,14.4
2023-06-07T00:36:12.986Z,14.2
2023-06-07T00:49:12.988Z,14.0
2023-06-07T01:02:13.238Z,14.0
2023-06-07T01:15:13.083Z,13.8
2023-06-07T01:28:13.122Z,13.8
2023-06-07T01:41:13.091Z,13.8
2023-06-07T01:54:13.150Z,13.7
2023-06-07T02:07:13.207Z,14.0
2023-06-07T02:20:13.203Z,13.9
2023-06-07T02:33:13.367Z,13.8
2023-06-07T02:46:13.386Z,13.8
2023-06-07T02:59:13.372Z,14.0
2023-06-07T03:12:13.421Z,14.0
2023-06-07T03:25:13.438Z,14.0
2023-06-07T03:38:13.488Z,14.1
2023-06-07T03:51:13.515Z,14.6
2023-06-07T04:04:13.633Z,15.0
2023-06-07T04:17:13.602Z,15.4
2023-06-07T04:30:13.616Z,16.0
2023-06-07T04:43:13.662Z,16.4
2023-06-07T04:56:13.670Z,16.8
2023-06-07T05:09:13.713Z,17.3
2023-06-07T05:22:13.717Z,17.5
2023-06-07T05:35:13.740Z,18.1
2023-06-07T05:48:13.737Z,18.5
2023-06-07T06:01:13.846Z,18.9
2023-06-07T06:14:13.860Z,21.1
2023-06-07T06:27:13.831Z,23.5
2023-06-07T06:40:13.869Z,25.1
2023-06-07T06:53:13.902Z,25.3
2023-06-07T07:06:13.900Z,25.5
2023-06-07T07:19:13.944Z,26.3
2023-06-07T07:32:13.982Z,26.7
2023-06-07T07:45:13.958Z,26.0
2023-06-07T07:58:13.986Z,24.6
2023-06-07T08:11:13.955Z,25.3
2023-06-07T08:24:14.009Z,24.2
2023-06-07T08:37:13.971Z,24.9
2023-06-07T08:50:14.150Z,26.6
2023-06-07T09:03:14.180Z,26.5
2023-06-07T09:16:14.041Z,26.4
2023-06-07T09:29:14.046Z,26.5
2023-06-07T09:42:14.033Z,29.7
2023-06-07T09:55:14.043Z,29.3
2023-06-07T10:08:14.081Z,29.2
2023-06-07T10:21:14.113Z,27.9
2023-06-07T10:34:14.094Z,27.6
2023-06-07T10:47:14.259Z,28.9
2023-06-07T11:00:16.248Z,29.3
2023-06-07T11:13:14.087Z,28.5
2023-06-07T11:26:14.140Z,27.5
2023-06-07T11:39:14.113Z,26.3
2023-06-07T11:52:14.154Z,26.3
2023-06-07T12:05:14.189Z,26.5
2023-06-07T12:18:14.237Z,26.9
2023-06-07T12:31:14.302Z,25.8
2023-06-07T12:44:14.315Z,25.8
2023-06-07T12:57:14.384Z,25.9
2023-06-07T13:10:14.448Z,25.7
2023-06-07T13:23:14.462Z,26.6
2023-06-07T13:36:14.502Z,28.3
2023-06-07T13:49:15.042Z,29.3
2023-06-07T14:02:14.664Z,29.2
2023-06-07T14:15:14.560Z,30.8
2023-06-07T14:28:15.847Z,29.8
2023-06-07T14:41:14.575Z,28.9
2023-06-07T14:54:14.578Z,28.1
2023-06-07T15:07:14.643Z,28.0
2023-06-07T15:20:14.716Z,28.5
2023-06-07T15:33:14.762Z,27.6
2023-06-07T15:46:14.761Z,27.6
2023-06-07T15:59:14.706Z,27.1
2023-06-07T16:12:14.714Z,26.7
2023-06-07T16:25:14.764Z,26.3
2023-06-07T16:38:14.765Z,25.2
2023-06-07T16:51:14.772Z,24.4
2023-06-07T17:04:14.784Z,23.9
2023-06-07T17:17:14.781Z,23.4
2023-06-07T17:30:14.801Z,22.8
2023-06-07T17:43:14.807Z,22.6
2023-06-07T17:56:14.826Z,22.3
2023-06-07T18:09:14.808Z,22.0
2023-06-07T18:22:17.300Z,21.9
2023-06-07T18:35:14.821Z,21.4
2023-06-07T18:48:14.868Z,20.8
2023-06-07T19:01:14.929Z,20.4
2023-06-07T19:14:14.860Z,19.8
2023-06-07T19:27:14.832Z,19.6
2023-06-07T19:40:14.797Z,18.9
2023-06-07T19:53:15.003Z,18.7
2023-06-07T20:06:17.576Z,18.2
2023-06-07T20:19:15.029Z,17.9
2023-06-07T20:32:15.520Z,18.4
2023-06-07T20:45:16.052Z,18.8
2023-06-07T20:58:15.048Z,18.3
2023-06-07T21:11:15.318Z,18.2
2023-06-07T21:24:15.093Z,18.2
2023-06-07T21:50:15.435Z,17.9
2023-06-07T22:03:15.033Z,17.7
2023-06-07T22:16:14.962Z,17.5
2023-06-07T22:29:14.901Z,17.1
2023-06-07T22:42:14.928Z,17.0
2023-06-07T22:55:14.930Z,17.0
2023-06-07T23:08:14.914Z,16.8
2023-06-07T23:21:14.921Z,16.7
2023-06-07T23:34:14.930Z,16.6
2023-06-07T23:47:14.933Z,16.6
